Time,TemperatureF,DewpointF,PressureIn,WindDirection,WindDirectionDegrees,WindSpeedMPH,WindSpeedGustMPH,Humidity,HourlyPrecipIn,Conditions,Clouds,dailyrainin,SolarRadiationWatts/m^2,SoftwareType,DateUTC
2013-01-03 00:22:00,0.0,-7.0,-100.00,WSW,243,3.0,6.0,73,0.00,,,0.05,0.000000,,2013-01-03 07:22:00,
2013-01-03 00:32:00,0.0,-7.0,-100.00,WSW,243,3.0,6.0,73,0.00,,,0.05,0.000000,,2013-01-03 07:32:00,
2013-01-03 00:42:00,0.0,-7.0,-100.00,WSW,243,3.0,6.0,73,0.00,,,0.05,0.000000,,2013-01-03 07:42:00,
2013-01-03 00:50:00,0.0,-6.0,-100.00,WSW,250,5.0,7.0,74,0.00,,,0.05,0.000000,,2013-01-03 07:50:00,
2013-01-03 01:22:00,0.0,-6.0,-100.00,WSW,250,5.0,7.0,74,0.00,,,0.05,0.000000,,2013-01-03 08:22:00,
2013-01-03 01:32:00,0.0,-6.0,-100.00,WSW,250,5.0,7.0,74,0.00,,,0.05,0.000000,,2013-01-03 08:32:00,
2013-01-03 01:42:00,0.0,-6.0,-100.00,WSW,250,5.0,7.0,74,0.00,,,0.05,0.000000,,2013-01-03 08:42:00,
2013-01-03 01:50:00,0.0,-6.0,-100.00,WSW,247,6.0,8.0,74,0.00,,,0.05,0.000000,,2013-01-03 08:50:00,
2013-01-03 02:12:00,0.0,-6.0,-100.00,WSW,247,6.0,8.0,74,0.00,,,0.05,0.000000,,2013-01-03 09:12:00,
2013-01-03 02:22:00,0.0,-6.0,-100.00,WSW,247,6.0,8.0,74,0.00,,,0.05,0.000000,,2013-01-03 09:22:00,
2013-01-03 02:33:00,0.0,-6.0,-100.00,WSW,247,6.0,8.0,74,0.00,,,0.05,0.000000,,2013-01-03 09:33:00,
2013-01-03 02:42:00,0.0,-6.0,-100.00,WSW,247,6.0,8.0,74,0.00,,,0.05,0.000000,,2013-01-03 09:42:00,
2013-01-03 02:50:00,-2.0,-9.0,-100.00,WSW,247,7.0,8.0,73,0.00,,,-99.99,0.000000,,2013-01-03 09:50:00,
2013-01-03 03:22:00,-2.0,-9.0,-100.00,WSW,247,7.0,8.0,73,0.00,,,-99.99,0.000000,,2013-01-03 10:22:00,
2013-01-03 03:32:00,-2.0,-9.0,-100.00,WSW,247,7.0,8.0,73,0.00,,,-99.99,0.000000,,2013-01-03 10:32:00,
2013-01-03 03:42:00,-2.0,-9.0,-100.00,WSW,247,7.0,8.0,73,0.00,,,-99.99,0.000000,,2013-01-03 10:42:00,
2013-01-03 03:50:00,-4.0,-11.0,-100.00,WSW,238,7.0,11.0,71,0.00,,,0.05,0.000000,,2013-01-03 10:50:00,
2013-01-03 04:12:00,-4.0,-11.0,-100.00,WSW,238,7.0,11.0,71,0.00,,,0.05,0.000000,,2013-01-03 11:12:00,
2013-01-03 04:22:00,-4.0,-11.0,-100.00,WSW,238,7.0,11.0,71,0.00,,,0.05,0.000000,,2013-01-03 11:22:00,
2013-01-03 04:33:00,-4.0,-11.0,-100.00,WSW,238,7.0,11.0,71,0.00,,,0.05,0.000000,,2013-01-03 11:33:00,
2013-01-03 04:42:00,-4.0,-11.0,-100.00,WSW,238,7.0,11.0,71,0.00,,,0.05,0.000000,,2013-01-03 11:42:00,
2013-01-03 04:50:00,-4.0,-11.0,-100.00,WSW,246,7.0,10.0,71,0.00,,,0.05,0.000000,,2013-01-03 11:50:00,
2013-01-03 05:12:00,-4.0,-11.0,-100.00,WSW,246,7.0,10.0,71,0.00,,,0.05,0.000000,,2013-01-03 12:12:00,
2013-01-03 05:22:00,-4.0,-11.0,-100.00,WSW,246,7.0,10.0,71,0.00,,,0.05,0.000000,,2013-01-03 12:22:00,
2013-01-03 05:32:00,-4.0,-11.0,-100.00,WSW,246,7.0,10.0,71,0.00,,,0.05,0.000000,,2013-01-03 12:32:00,
2013-01-03 05:42:00,-4.0,-11.0,-100.00,WSW,246,7.0,10.0,71,0.00,,,0.05,0.000000,,2013-01-03 12:42:00,
2013-01-03 05:50:00,-5.0,-13.0,-100.00,WSW,251,7.0,9.0,69,0.00,,,0.05,0.000000,,2013-01-03 12:50:00,
2013-01-03 06:22:00,-5.0,-13.0,-100.00,WSW,251,7.0,9.0,69,0.00,,,0.05,0.000000,,2013-01-03 13:22:00,
2013-01-03 06:32:00,-5.0,-13.0,-100.00,WSW,251,7.0,9.0,69,0.00,,,0.05,0.000000,,2013-01-03 13:32:00,
2013-01-03 06:42:00,-5.0,-13.0,-100.00,WSW,251,7.0,9.0,69,0.00,,,0.05,0.000000,,2013-01-03 13:42:00,
2013-01-03 06:50:00,-6.0,-13.0,-100.00,WSW,255,7.0,9.0,70,0.00,,,-99.99,0.000000,,2013-01-03 13:50:00,
2013-01-03 07:12:00,-6.0,-13.0,-100.00,WSW,255,7.0,9.0,70,0.00,,,-99.99,0.000000,,2013-01-03 14:12:00,
2013-01-03 07:22:00,-6.0,-13.0,-100.00,WSW,255,7.0,9.0,70,0.00,,,-99.99,0.000000,,2013-01-03 14:22:00,
2013-01-03 07:32:00,-6.0,-13.0,-100.00,WSW,255,7.0,9.0,70,0.00,,,-99.99,0.000000,,2013-01-03 14:32:00,
2013-01-03 07:42:00,-6.0,-13.0,-100.00,WSW,255,7.0,9.0,70,0.00,,,-99.99,0.000000,,2013-01-03 14:42:00,
2013-01-03 07:50:00,-4.0,-12.0,-100.00,WSW,249,8.0,10.0,69,0.00,,,0.05,3.000000,,2013-01-03 14:50:00,
2013-01-03 08:12:00,-4.0,-12.0,-100.00,WSW,249,8.0,10.0,69,0.00,,,0.05,3.000000,,2013-01-03 15:12:00,
2013-01-03 08:22:00,-4.0,-12.0,-100.00,WSW,249,8.0,10.0,69,0.00,,,0.05,3.000000,,2013-01-03 15:22:00,
2013-01-03 08:33:00,-4.0,-12.0,-100.00,WSW,249,8.0,10.0,69,0.00,,,0.05,3.000000,,2013-01-03 15:33:00,
2013-01-03 08:42:00,-4.0,-12.0,-100.00,WSW,249,8.0,10.0,69,0.00,,,0.05,3.000000,,2013-01-03 15:42:00,
2013-01-03 08:50:00,4.0,-7.0,-100.00,WSW,247,6.0,10.0,60,0.00,,,0.05,91.000000,,2013-01-03 15:50:00,
2013-01-03 09:12:00,4.0,-7.0,-100.00,WSW,247,6.0,10.0,60,0.00,,,0.05,91.000000,,2013-01-03 16:12:00,
2013-01-03 09:22:00,4.0,-7.0,-100.00,WSW,247,6.0,10.0,60,0.00,,,0.05,91.000000,,2013-01-03 16:22:00,
2013-01-03 09:33:00,4.0,-7.0,-100.00,WSW,247,6.0,10.0,60,0.00,,,0.05,91.000000,,2013-01-03 16:33:00,
2013-01-03 09:42:00,4.0,-7.0,-100.00,WSW,247,6.0,10.0,60,0.00,,,0.05,91.000000,,2013-01-03 16:42:00,
2013-01-03 09:50:00,14.0,-2.0,-100.00,WSW,245,5.0,7.0,47,0.00,,,0.05,290.000000,,2013-01-03 16:50:00,
2013-01-03 10:12:00,14.0,-2.0,-100.00,WSW,245,5.0,7.0,47,0.00,,,0.05,290.000000,,2013-01-03 17:12:00,
2013-01-03 10:22:00,14.0,-2.0,-100.00,WSW,245,5.0,7.0,47,0.00,,,0.05,290.000000,,2013-01-03 17:22:00,
2013-01-03 10:33:00,14.0,-2.0,-100.00,WSW,245,5.0,7.0,47,0.00,,,0.05,290.000000,,2013-01-03 17:33:00,
2013-01-03 10:42:00,14.0,-2.0,-100.00,WSW,245,5.0,7.0,47,0.00,,,0.05,290.000000,,2013-01-03 17:42:00,
2013-01-03 10:50:00,23.0,-2.0,-100.00,NNE,14,3.0,7.0,33,0.00,,,-99.99,446.000000,,2013-01-03 17:50:00,
2013-01-03 11:13:00,23.0,-2.0,-100.00,NNE,14,3.0,7.0,33,0.00,,,-99.99,446.000000,,2013-01-03 18:13:00,
2013-01-03 11:22:00,23.0,-2.0,-100.00,NNE,14,3.0,7.0,33,0.00,,,-99.99,446.000000,,2013-01-03 18:22:00,
2013-01-03 11:33:00,23.0,-2.0,-100.00,NNE,14,3.0,7.0,33,0.00,,,-99.99,446.000000,,2013-01-03 18:33:00,
2013-01-03 11:42:00,23.0,-2.0,-100.00,NNE,14,3.0,7.0,33,0.00,,,-99.99,446.000000,,2013-01-03 18:42:00,
2013-01-03 11:50:00,25.0,-2.0,-100.00,NNE,27,4.0,8.0,30,0.01,,,0.04,581.000000,,2013-01-03 18:50:00,
2013-01-03 12:50:00,25.0,-1.0,-100.00,ENE,57,4.0,9.0,32,0.00,,,0.02,628.000000,,2013-01-03 19:50:00,
2013-01-03 13:22:00,25.0,-1.0,-100.00,ENE,57,4.0,9.0,32,0.00,,,0.02,628.000000,,2013-01-03 20:22:00,
2013-01-03 13:33:00,25.0,-1.0,-100.00,ENE,57,4.0,9.0,32,0.00,,,0.02,628.000000,,2013-01-03 20:33:00,
2013-01-03 13:42:00,25.0,-1.0,-100.00,ENE,57,4.0,9.0,32,0.00,,,0.02,628.000000,,2013-01-03 20:42:00,
2013-01-03 13:50:00,25.0,1.0,-100.00,NE,54,3.0,7.0,34,0.00,,,-99.99,622.000000,,2013-01-03 20:50:00,
2013-01-03 14:12:00,25.0,1.0,-100.00,NE,54,3.0,7.0,34,0.00,,,-99.99,622.000000,,2013-01-03 21:12:00,
2013-01-03 14:22:00,25.0,1.0,-100.00,NE,54,3.0,7.0,34,0.00,,,-99.99,622.000000,,2013-01-03 21:22:00,
2013-01-03 14:35:00,25.0,1.0,-100.00,NE,54,3.0,7.0,34,0.00,,,-99.99,622.000000,,2013-01-03 21:35:00,
2013-01-03 14:46:00,25.0,1.0,-100.00,NE,54,3.0,7.0,34,0.00,,,-99.99,622.000000,,2013-01-03 21:46:00,
2013-01-03 14:50:00,25.0,1.0,-100.00,East,89,1.0,7.0,35,0.00,,,0.01,521.000000,,2013-01-03 21:50:00,
2013-01-03 15:22:00,25.0,1.0,-100.00,East,89,1.0,7.0,35,0.00,,,0.01,521.000000,,2013-01-03 22:22:00,
2013-01-03 15:32:00,25.0,1.0,-100.00,East,89,1.0,7.0,35,0.00,,,0.01,521.000000,,2013-01-03 22:32:00,
2013-01-03 15:42:00,25.0,1.0,-100.00,East,89,1.0,7.0,35,0.00,,,0.01,521.000000,,2013-01-03 22:42:00,
2013-01-03 15:50:00,20.0,-3.0,-100.00,NNE,23,5.0,8.0,35,0.00,,,0.01,217.000000,,2013-01-03 22:50:00,
2013-01-03 16:22:00,20.0,-3.0,-100.00,NNE,23,5.0,8.0,35,0.00,,,0.01,217.000000,,2013-01-03 23:22:00,
2013-01-03 16:32:00,20.0,-3.0,-100.00,NNE,23,5.0,8.0,35,0.00,,,0.01,217.000000,,2013-01-03 23:32:00,
2013-01-03 16:42:00,20.0,-3.0,-100.00,NNE,23,5.0,8.0,35,0.00,,,0.01,217.000000,,2013-01-03 23:42:00,
2013-01-03 16:50:00,16.0,-3.0,-100.00,NE,49,1.0,7.0,42,0.00,,,0.01,37.000000,,2013-01-03 23:50:00,
2013-01-03 17:12:00,16.0,-3.0,-100.00,NE,49,1.0,7.0,42,0.00,,,0.01,37.000000,,2013-01-04 00:12:00,
2013-01-03 17:22:00,16.0,-3.0,-100.00,NE,49,1.0,7.0,42,0.00,,,0.01,37.000000,,2013-01-04 00:22:00,
2013-01-03 17:32:00,16.0,-3.0,-100.00,NE,49,1.0,7.0,42,0.00,,,0.01,37.000000,,2013-01-04 00:32:00,
2013-01-03 17:42:00,16.0,-3.0,-100.00,NE,49,1.0,7.0,42,0.00,,,0.01,37.000000,,2013-01-04 00:42:00,
2013-01-03 17:50:00,10.0,-3.0,-100.00,WSW,238,4.0,6.0,55,0.00,,,0.01,3.000000,,2013-01-04 00:50:00,
2013-01-03 18:12:00,10.0,-3.0,-100.00,WSW,238,4.0,6.0,55,0.00,,,0.01,3.000000,,2013-01-04 01:12:00,
2013-01-03 18:22:00,10.0,-3.0,-100.00,WSW,238,4.0,6.0,55,0.00,,,0.01,3.000000,,2013-01-04 01:22:00,
2013-01-03 18:32:00,10.0,-3.0,-100.00,WSW,238,4.0,6.0,55,0.00,,,0.01,3.000000,,2013-01-04 01:32:00,
2013-01-03 18:42:00,10.0,-3.0,-100.00,WSW,238,4.0,6.0,55,0.00,,,0.01,3.000000,,2013-01-04 01:42:00,
2013-01-03 18:50:00,6.0,-7.0,-100.00,West,270,3.0,6.0,53,0.00,,,0.01,0.000000,,2013-01-04 01:50:00,
2013-01-03 19:12:00,6.0,-7.0,-100.00,West,270,3.0,6.0,53,0.00,,,0.01,0.000000,,2013-01-04 02:12:00,
2013-01-03 19:22:00,6.0,-7.0,-100.00,West,270,3.0,6.0,53,0.00,,,0.01,0.000000,,2013-01-04 02:22:00,
2013-01-03 19:32:00,6.0,-7.0,-100.00,West,270,3.0,6.0,53,0.00,,,0.01,0.000000,,2013-01-04 02:32:00,
2013-01-03 19:42:00,6.0,-7.0,-100.00,West,270,3.0,6.0,53,0.00,,,0.01,0.000000,,2013-01-04 02:42:00,
2013-01-03 19:50:00,4.0,-8.0,-100.00,WSW,254,5.0,7.0,56,0.00,,,0.01,0.000000,,2013-01-04 02:50:00,
2013-01-03 20:12:00,4.0,-8.0,-100.00,WSW,254,5.0,7.0,56,0.00,,,0.01,0.000000,,2013-01-04 03:12:00,
2013-01-03 20:22:00,4.0,-8.0,-100.00,WSW,254,5.0,7.0,56,0.00,,,0.01,0.000000,,2013-01-04 03:22:00,
2013-01-03 20:32:00,4.0,-8.0,-100.00,WSW,254,5.0,7.0,56,0.00,,,0.01,0.000000,,2013-01-04 03:32:00,
2013-01-03 20:42:00,4.0,-8.0,-100.00,WSW,254,5.0,7.0,56,0.00,,,0.01,0.000000,,2013-01-04 03:42:00,
2013-01-03 20:50:00,3.0,-7.0,-100.00,WSW,244,7.0,8.0,62,0.00,,,0.01,0.000000,,2013-01-04 03:50:00,
2013-01-03 21:12:00,3.0,-7.0,-100.00,WSW,244,7.0,8.0,62,0.00,,,0.01,0.000000,,2013-01-04 04:12:00,
2013-01-03 21:22:00,3.0,-7.0,-100.00,WSW,244,7.0,8.0,62,0.00,,,0.01,0.000000,,2013-01-04 04:22:00,
2013-01-03 21:32:00,3.0,-7.0,-100.00,WSW,244,7.0,8.0,62,0.00,,,0.01,0.000000,,2013-01-04 04:32:00,
2013-01-03 21:42:00,3.0,-7.0,-100.00,WSW,244,7.0,8.0,62,0.00,,,0.01,0.000000,,2013-01-04 04:42:00,
2013-01-03 21:50:00,4.0,-6.0,-100.00,WSW,243,8.0,10.0,61,0.00,,,0.01,0.000000,,2013-01-04 04:50:00,
2013-01-03 22:22:00,4.0,-6.0,-100.00,WSW,243,8.0,10.0,61,0.00,,,0.01,0.000000,,2013-01-04 05:22:00,
2013-01-03 22:33:00,4.0,-6.0,-100.00,WSW,243,8.0,10.0,61,0.00,,,0.01,0.000000,,2013-01-04 05:33:00,
2013-01-03 22:42:00,4.0,-6.0,-100.00,WSW,243,8.0,10.0,61,0.00,,,0.01,0.000000,,2013-01-04 05:42:00,
2013-01-03 22:50:00,3.0,-6.0,-100.00,WSW,250,6.0,11.0,64,0.00,,,0.01,0.000000,,2013-01-04 05:50:00,
2013-01-03 23:12:00,3.0,-6.0,-100.00,WSW,250,6.0,11.0,64,0.00,,,0.01,0.000000,,2013-01-04 06:12:00,
2013-01-03 23:22:00,3.0,-6.0,-100.00,WSW,250,6.0,11.0,64,0.00,,,0.01,0.000000,,2013-01-04 06:22:00,
2013-01-03 23:32:00,3.0,-6.0,-100.00,WSW,250,6.0,11.0,64,0.00,,,0.01,0.000000,,2013-01-04 06:32:00,
2013-01-03 23:42:00,3.0,-6.0,-100.00,WSW,250,6.0,11.0,64,0.00,,,0.01,0.000000,,2013-01-04 06:42:00,
2013-01-03 23:50:00,2.0,-7.0,-100.00,WSW,255,6.0,8.0,64,0.00,,,0.01,0.000000,,2013-01-04 06:50:00,